Rosa Maersk — OVST2 — position and weather

sailwx.info

Track history (hours):
 
Tides and Currents Weather Stations Pressure Air Temp Water Temp Dewpoint Dewpoint Depression Visibility Wind Speed Wind Dir Waves Ship Positions

Rosa Maersk

Last reported at 2015-May-03 15:22 UTC. Time now 2015-May-24 17:26 UTC.
Position N 31°54' W 013°51'.
Warning: this ship's position is 21 days out of date.

Length 172 m; draft 10 m.

Type: Ship. MMSI: 220288000.

Date/timePositionNaut miles runAvg speedWind from/ knotsBaromVisibWave heightAir tempDewpointWater temp
2015-May-03 15:22N 31°54' W 013°51'20412.8
2015-May-02 23:23N 35°11' W 012°48'11010.9
2015-May-02 13:14N 36°57' W 012°12'2012.0
2015-May-02 11:32N 37°17' W 012°07'2311.8
2015-May-02 09:33N 37°40' W 011°59'1511.8
2015-May-02 08:17N 37°54' W 011°54'912.0
2015-May-02 07:33N 38°03' W 011°51'2411.9
2015-May-02 05:33N 38°26' W 011°45'1211.5
2015-May-02 04:32N 38°37' W 011°40'1511.5
2015-May-02 03:16N 38°51' W 011°35'2011.5
2015-May-02 01:31N 39°11' W 011°29'1111.1
2015-May-02 00:33N 39°21' W 011°25'1111.4
2015-May-01 23:33N 39°32' W 011°22'1111.1
2015-May-01 22:33N 39°43' W 011°18'  
2015-Apr-28 16:28N 50°33' E 000°16'4511.5
2015-Apr-28 12:32N 50°55' E 001°19'1212.0
2015-Apr-28 11:33N 51°04' E 001°32'1111.4
2015-Apr-28 10:33N 51°12' E 001°45'1111.1
2015-Apr-28 09:34N 51°22' E 001°54'1111.1
2015-Apr-28 08:33N 51°30' E 002°05'1211.0
2015-Apr-28 07:31N 51°39' E 002°16'47011.5
2015-Apr-26 14:32N 57°50' E 010°38'1010.4
2015-Apr-26 13:33N 57°53' E 010°56'1111.0
2015-Apr-26 12:33N 57°56' E 011°16'2 1.9
2015-Apr-26 11:25N 57°57' E 011°20'0 0.0
2015-Apr-26 10:31N 57°57' E 011°20'0 0.0
2015-Apr-26 09:31N 57°57' E 011°20'0 0.0
2015-Apr-26 08:19N 57°57' E 011°20'0 0.1
2015-Apr-26 07:33N 57°56' E 011°20'6 6.0
2015-Apr-26 06:33N 57°51' E 011°18'1 0.6
2015-Apr-26 05:28N 57°51' E 011°17'1 0.9
2015-Apr-26 04:10N 57°51' E 011°15'1 1.0
2015-Apr-26 03:29N 57°51' E 011°14'0 0.5
2015-Apr-26 02:33N 57°52' E 011°13'3 3.4
2015-Apr-26 01:33N 57°50' E 011°19'0 0.3
2015-Apr-26 00:33N 57°50' E 011°18'0 0.4
2015-Apr-25 23:33N 57°50' E 011°18'2 1.7
2015-Apr-25 22:33N 57°50' E 011°15'3 2.6
2015-Apr-25 21:33N 57°52' E 011°18'2 2.1
2015-Apr-25 20:33N 57°54' E 011°21'2 1.8
2015-Apr-25 19:33N 57°52' E 011°21'3 2.6
2015-Apr-25 18:32N 57°54' E 011°18'1 1.5
2015-Apr-25 17:32N 57°53' E 011°20'0 0.4
2015-Apr-25 16:33N 57°53' E 011°20'2 1.6
2015-Apr-25 15:30N 57°51' E 011°21'6 6.8
2015-Apr-25 14:33N 57°54' E 011°32'9 8.7
2015-Apr-25 13:33N 57°59' E 011°45'6 5.1
2015-Apr-25 12:17N 58°05' E 011°49'0 0.0
2015-Apr-25 10:20N 58°05' E 011°49'0 0.0
2015-Apr-25 08:17N 58°05' E 011°49'0 0.0
2015-Apr-24 14:31N 58°05' E 011°49'0 0.0
2015-Apr-24 04:30N 58°05' E 011°49'3 3.2
2015-Apr-24 03:33N 58°02' E 011°48'9 9.5
2015-Apr-24 02:33N 57°55' E 011°36'9 9.1
2015-Apr-24 01:33N 57°50' E 011°22'8 7.8
2015-Apr-24 00:33N 57°48' E 011°08'7 7.0
2015-Apr-23 23:33N 57°45' E 010°56'10 9.7
2015-Apr-23 22:32N 57°41' E 010°39'1 0.3
2015-Apr-23 18:31N 57°42' E 010°38'  
Track history (hours):
 
Tides and Currents Weather Stations Pressure Air Temp Water Temp Dewpoint Dewpoint Depression Visibility Wind Speed Wind Dir Waves Ship Positions

Rosa Maersk

Last reported at 2015-May-03 15:22 UTC. Time now 2015-May-24 17:26 UTC.
Position N 31°54' W 013°51'.
Warning: this ship's position is 21 days out of date.

Length 172 m; draft 10 m.

Type: Ship. MMSI: 220288000.

Date/timePositionNaut miles runAvg speedWind from/ knotsBaromVisibWave heightAir tempDewpointWater temp
2015-May-03 15:22N 31°54' W 013°51'20412.8
2015-May-02 23:23N 35°11' W 012°48'11010.9
2015-May-02 13:14N 36°57' W 012°12'2012.0
2015-May-02 11:32N 37°17' W 012°07'2311.8
2015-May-02 09:33N 37°40' W 011°59'1511.8
2015-May-02 08:17N 37°54' W 011°54'912.0
2015-May-02 07:33N 38°03' W 011°51'2411.9
2015-May-02 05:33N 38°26' W 011°45'1211.5
2015-May-02 04:32N 38°37' W 011°40'1511.5
2015-May-02 03:16N 38°51' W 011°35'2011.5
2015-May-02 01:31N 39°11' W 011°29'1111.1
2015-May-02 00:33N 39°21' W 011°25'1111.4
2015-May-01 23:33N 39°32' W 011°22'1111.1
2015-May-01 22:33N 39°43' W 011°18'  
2015-Apr-28 16:28N 50°33' E 000°16'4511.5
2015-Apr-28 12:32N 50°55' E 001°19'1212.0
2015-Apr-28 11:33N 51°04' E 001°32'1111.4
2015-Apr-28 10:33N 51°12' E 001°45'1111.1
2015-Apr-28 09:34N 51°22' E 001°54'1111.1
2015-Apr-28 08:33N 51°30' E 002°05'1211.0
2015-Apr-28 07:31N 51°39' E 002°16'47011.5
2015-Apr-26 14:32N 57°50' E 010°38'1010.4
2015-Apr-26 13:33N 57°53' E 010°56'1111.0
2015-Apr-26 12:33N 57°56' E 011°16'2 1.9
2015-Apr-26 11:25N 57°57' E 011°20'0 0.0
2015-Apr-26 10:31N 57°57' E 011°20'0 0.0
2015-Apr-26 09:31N 57°57' E 011°20'0 0.0
2015-Apr-26 08:19N 57°57' E 011°20'0 0.1
2015-Apr-26 07:33N 57°56' E 011°20'6 6.0
2015-Apr-26 06:33N 57°51' E 011°18'1 0.6
2015-Apr-26 05:28N 57°51' E 011°17'1 0.9
2015-Apr-26 04:10N 57°51' E 011°15'1 1.0
2015-Apr-26 03:29N 57°51' E 011°14'0 0.5
2015-Apr-26 02:33N 57°52' E 011°13'3 3.4
2015-Apr-26 01:33N 57°50' E 011°19'0 0.3
2015-Apr-26 00:33N 57°50' E 011°18'0 0.4
2015-Apr-25 23:33N 57°50' E 011°18'2 1.7
2015-Apr-25 22:33N 57°50' E 011°15'3 2.6
2015-Apr-25 21:33N 57°52' E 011°18'2 2.1
2015-Apr-25 20:33N 57°54' E 011°21'2 1.8
2015-Apr-25 19:33N 57°52' E 011°21'3 2.6
2015-Apr-25 18:32N 57°54' E 011°18'1 1.5
2015-Apr-25 17:32N 57°53' E 011°20'0 0.4
2015-Apr-25 16:33N 57°53' E 011°20'2 1.6
2015-Apr-25 15:30N 57°51' E 011°21'6 6.8
2015-Apr-25 14:33N 57°54' E 011°32'9 8.7
2015-Apr-25 13:33N 57°59' E 011°45'6 5.1
2015-Apr-25 12:17N 58°05' E 011°49'0 0.0
2015-Apr-25 10:20N 58°05' E 011°49'0 0.0
2015-Apr-25 08:17N 58°05' E 011°49'0 0.0
2015-Apr-24 14:31N 58°05' E 011°49'0 0.0
2015-Apr-24 04:30N 58°05' E 011°49'3 3.2
2015-Apr-24 03:33N 58°02' E 011°48'9 9.5
2015-Apr-24 02:33N 57°55' E 011°36'9 9.1
2015-Apr-24 01:33N 57°50' E 011°22'8 7.8
2015-Apr-24 00:33N 57°48' E 011°08'7 7.0
2015-Apr-23 23:33N 57°45' E 010°56'10 9.7
2015-Apr-23 22:32N 57°41' E 010°39'1 0.3
2015-Apr-23 18:31N 57°42' E 010°38'  

Dump ship's entire track history